Time;durP1;ratioP1;P1;durP2;ratioP2;P2;SDS_P1;SDS_P2;PMS_P1;PMS_P2;Temp;Humidity;BMP_temperature;BMP_pressure;BME280_temperature;BME280_humidity;BME280_pressure;Samples;Min_cycle;Max_cycle;Signal;HPM_P1;HPM_P2
2023/07/28 00:01:14;;;;;;;0.30;0.30;;;;;;;;;;4997524;28;20546;-66
2023/07/28 00:03:39;;;;;;;1.85;0.40;;;;;;;;;;5007348;28;20041;-66
2023/07/28 00:06:05;;;;;;;1.52;0.50;;;;;;;;;;4995730;28;20132;-66
2023/07/28 00:08:30;;;;;;;1.50;0.40;;;;;;;;;;5000858;28;20104;-66
2023/07/28 00:10:55;;;;;;;1.63;0.50;;;;;;;;;;4998128;28;20061;-66
2023/07/28 00:13:21;;;;;;;0.75;0.50;;;;;;;;;;4997401;28;20042;-66
2023/07/28 00:15:46;;;;;;;2.50;0.50;;;;;;;;;;5004230;28;20053;-66
2023/07/28 00:18:12;;;;;;;1.13;0.50;;;;;;;;;;5007963;28;20116;-66
2023/07/28 00:20:37;;;;;;;3.35;0.57;;;;;;;;;;4994487;28;21348;-65
2023/07/28 00:23:02;;;;;;;0.55;0.45;;;;;;;;;;4985410;28;20069;-66
2023/07/28 00:25:28;;;;;;;0.20;0.20;;;;;;;;;;4998876;28;20044;-66
2023/07/28 00:27:53;;;;;;;0.93;0.30;;;;;;;;;;5004704;28;20042;-66
2023/07/28 00:30:18;;;;;;;1.50;0.40;;;;;;;;;;4985573;28;20399;-66
2023/07/28 00:32:44;;;;;;;1.23;0.40;;;;;;;;;;5005002;28;20053;-66
2023/07/28 00:35:09;;;;;;;0.40;0.40;;;;;;;;;;4996053;28;20037;-66
2023/07/28 00:37:34;;;;;;;0.30;0.30;;;;;;;;;;5002452;28;20042;-65
2023/07/28 00:40:00;;;;;;;1.55;0.40;;;;;;;;;;4996163;28;20062;-66
2023/07/28 00:42:25;;;;;;;0.90;0.38;;;;;;;;;;4998749;28;20469;-66
2023/07/28 00:44:50;;;;;;;1.90;0.40;;;;;;;;;;5004458;28;20042;-66
2023/07/28 00:47:16;;;;;;;0.38;0.38;;;;;;;;;;5004176;28;20034;-65
2023/07/28 00:49:41;;;;;;;1.15;0.50;;;;;;;;;;4995526;28;20077;-66
2023/07/28 00:52:07;;;;;;;2.40;0.40;;;;;;;;;;5003271;28;20034;-66
2023/07/28 00:54:33;;;;;;;0.95;0.40;;;;;;;;;;5003837;28;20049;-66
2023/07/28 00:56:59;;;;;;;3.72;0.50;;;;;;;;;;5004065;28;20030;-66
2023/07/28 00:59:24;;;;;;;0.20;0.20;;;;;;;;;;5008492;28;20034;-65
2023/07/28 01:01:50;;;;;;;1.13;0.40;;;;;;;;;;5008517;28;20533;-65
2023/07/28 01:04:15;;;;;;;0.65;0.47;;;;;;;;;;4979548;28;20127;-66
2023/07/28 01:06:59;;;;;;;0.30;0.30;;;;;;;;;;5007347;28;20033;-66
2023/07/28 01:09:33;;;;;;;0.55;0.40;;;;;;;;;;5001382;28;20041;-66
2023/07/28 01:11:58;;;;;;;0.88;0.40;;;;;;;;;;5007221;28;20569;-66
2023/07/28 01:14:25;;;;;;;1.23;0.30;;;;;;;;;;4996131;28;20069;-67
2023/07/28 01:16:50;;;;;;;0.43;0.40;;;;;;;;;;5003121;28;20406;-66
2023/07/28 01:19:22;;;;;;;0.30;0.30;;;;;;;;;;5007999;28;20044;-65
2023/07/28 01:22:02;;;;;;;0.70;0.40;;;;;;;;;;5002678;28;20029;-66
2023/07/28 01:24:46;;;;;;;0.82;0.55;;;;;;;;;;4997495;28;20116;-66
2023/07/28 01:27:11;;;;;;;0.40;0.40;;;;;;;;;;4994286;28;20051;-66
2023/07/28 01:29:37;;;;;;;0.55;0.43;;;;;;;;;;5008592;28;20762;-66
2023/07/28 01:32:03;;;;;;;0.43;0.43;;;;;;;;;;5009014;28;20038;-66
2023/07/28 01:34:29;;;;;;;0.40;0.40;;;;;;;;;;5007160;28;20601;-66
2023/07/28 01:36:54;;;;;;;0.70;0.40;;;;;;;;;;5003819;28;20045;-66
2023/07/28 01:39:19;;;;;;;2.58;0.40;;;;;;;;;;4990079;28;20985;-66
2023/07/28 01:41:45;;;;;;;0.50;0.40;;;;;;;;;;5007826;28;20072;-66
2023/07/28 01:44:11;;;;;;;0.75;0.50;;;;;;;;;;5008509;28;20037;-66
2023/07/28 01:46:36;;;;;;;0.93;0.50;;;;;;;;;;5006561;28;20473;-66
2023/07/28 01:49:01;;;;;;;1.90;0.50;;;;;;;;;;4985726;28;20065;-67
2023/07/28 01:51:27;;;;;;;2.28;0.40;;;;;;;;;;4999889;28;20038;-66
2023/07/28 01:53:52;;;;;;;0.40;0.40;;;;;;;;;;4981340;28;20049;-66
2023/07/28 01:56:17;;;;;;;0.57;0.30;;;;;;;;;;4981660;28;20069;-66
2023/07/28 01:58:43;;;;;;;0.75;0.43;;;;;;;;;;5003311;28;20034;-66
2023/07/28 02:01:08;;;;;;;1.17;0.50;;;;;;;;;;5005437;28;20490;-65
2023/07/28 02:03:33;;;;;;;0.77;0.25;;;;;;;;;;5005763;28;20488;-66
2023/07/28 02:06:00;;;;;;;2.35;0.60;;;;;;;;;;5004472;28;20034;-66
2023/07/28 02:08:26;;;;;;;1.70;0.70;;;;;;;;;;4987079;28;20045;-65
2023/07/28 02:10:53;;;;;;;0.70;0.40;;;;;;;;;;4997710;28;20489;-64
2023/07/28 02:13:19;;;;;;;0.80;0.40;;;;;;;;;;5004911;28;20096;-65
2023/07/28 02:15:44;;;;;;;1.77;0.50;;;;;;;;;;5006039;28;20109;-64
2023/07/28 02:18:09;;;;;;;0.68;0.40;;;;;;;;;;5006547;28;20042;-65
2023/07/28 02:20:35;;;;;;;3.78;1.10;;;;;;;;;;5004016;28;20116;-64
2023/07/28 02:23:01;;;;;;;0.65;0.35;;;;;;;;;;4988539;28;20077;-64
2023/07/28 02:25:26;;;;;;;1.58;0.57;;;;;;;;;;5004335;28;20147;-65
2023/07/28 02:27:52;;;;;;;0.22;0.22;;;;;;;;;;5007612;28;20037;-65
2023/07/28 02:30:17;;;;;;;1.00;0.40;;;;;;;;;;5008484;28;20124;-64
2023/07/28 02:32:42;;;;;;;0.38;0.38;;;;;;;;;;5003575;28;20544;-65
2023/07/28 02:35:08;;;;;;;1.40;0.43;;;;;;;;;;5005144;28;20045;-64
2023/07/28 02:37:33;;;;;;;0.40;0.38;;;;;;;;;;4990260;28;20035;-65
2023/07/28 02:39:59;;;;;;;0.90;0.30;;;;;;;;;;5003847;28;20038;-65
2023/07/28 02:42:25;;;;;;;1.23;0.30;;;;;;;;;;4999762;28;20113;-65
2023/07/28 02:44:50;;;;;;;0.38;0.30;;;;;;;;;;5000296;28;20061;-64
2023/07/28 02:47:16;;;;;;;0.55;0.40;;;;;;;;;;4983831;28;20038;-65
2023/07/28 02:49:42;;;;;;;0.20;0.20;;;;;;;;;;4997406;28;20041;-65
2023/07/28 02:52:07;;;;;;;1.90;0.40;;;;;;;;;;4972590;28;20050;-64
2023/07/28 02:54:33;;;;;;;1.05;0.40;;;;;;;;;;5001899;28;20029;-64
2023/07/28 02:56:58;;;;;;;0.32;0.32;;;;;;;;;;5002582;28;20040;-65
2023/07/28 02:59:23;;;;;;;0.30;0.30;;;;;;;;;;5007310;28;20033;-65
2023/07/28 03:01:51;;;;;;;0.30;0.28;;;;;;;;;;5005225;28;20045;-65
2023/07/28 03:04:18;;;;;;;0.65;0.22;;;;;;;;;;4991879;28;20030;-64
2023/07/28 03:06:44;;;;;;;0.30;0.30;;;;;;;;;;5004040;28;20025;-65
2023/07/28 03:09:09;;;;;;;0.30;0.20;;;;;;;;;;5002951;28;20054;-65
2023/07/28 03:11:34;;;;;;;0.20;0.20;;;;;;;;;;5007981;28;20052;-65
2023/07/28 03:14:00;;;;;;;1.10;0.38;;;;;;;;;;5006511;28;20518;-65
2023/07/28 03:16:25;;;;;;;0.43;0.25;;;;;;;;;;5006370;28;20038;-64
2023/07/28 03:18:50;;;;;;;0.22;0.20;;;;;;;;;;4993080;28;20048;-64
2023/07/28 03:21:16;;;;;;;0.20;0.20;;;;;;;;;;4997727;28;20045;-65
2023/07/28 03:23:41;;;;;;;0.43;0.35;;;;;;;;;;4998524;28;20033;-65
2023/07/28 03:26:07;;;;;;;0.93;0.30;;;;;;;;;;5003570;28;20041;-65
2023/07/28 03:28:32;;;;;;;1.15;0.40;;;;;;;;;;5006603;28;20026;-64
2023/07/28 03:30:57;;;;;;;0.30;0.30;;;;;;;;;;5004526;28;20050;-65
2023/07/28 03:33:23;;;;;;;0.93;0.60;;;;;;;;;;4991621;28;20100;-65
2023/07/28 03:35:48;;;;;;;0.35;0.30;;;;;;;;;;5001830;28;20037;-65
2023/07/28 03:38:13;;;;;;;0.43;0.30;;;;;;;;;;4998481;28;20038;-65
2023/07/28 03:40:39;;;;;;;0.73;0.40;;;;;;;;;;5007936;28;20556;-65
2023/07/28 03:43:04;;;;;;;1.60;0.40;;;;;;;;;;5007587;28;20130;-66
2023/07/28 03:45:29;;;;;;;0.98;0.20;;;;;;;;;;5007507;28;20041;-65
2023/07/28 03:47:55;;;;;;;0.47;0.22;;;;;;;;;;4983385;28;20038;-66
2023/07/28 03:50:20;;;;;;;0.20;0.20;;;;;;;;;;4998210;28;20049;-65
2023/07/28 03:52:45;;;;;;;1.40;0.47;;;;;;;;;;5000479;28;20099;-66
2023/07/28 03:55:11;;;;;;;0.70;0.30;;;;;;;;;;5003124;28;20033;-65
2023/07/28 03:57:36;;;;;;;0.35;0.32;;;;;;;;;;5007772;28;20049;-65
2023/07/28 04:00:02;;;;;;;0.73;0.50;;;;;;;;;;5002649;28;20049;-65
2023/07/28 04:02:27;;;;;;;0.40;0.40;;;;;;;;;;4990680;28;20438;-64
2023/07/28 04:04:56;;;;;;;1.65;0.38;;;;;;;;;;4996091;28;20052;-65
2023/07/28 04:07:22;;;;;;;1.67;0.50;;;;;;;;;;5003132;28;20025;-64
2023/07/28 04:09:47;;;;;;;0.32;0.20;;;;;;;;;;5001348;28;20474;-66
2023/07/28 04:12:13;;;;;;;0.70;0.40;;;;;;;;;;5003543;28;20063;-67
2023/07/28 04:14:38;;;;;;;2.28;0.40;;;;;;;;;;5007585;28;20029;-67
2023/07/28 04:17:04;;;;;;;0.20;0.20;;;;;;;;;;4976483;28;20035;-67
2023/07/28 04:19:29;;;;;;;1.05;0.38;;;;;;;;;;5001871;28;20049;-67
2023/07/28 04:21:56;;;;;;;0.88;0.40;;;;;;;;;;4997846;28;20045;-66
2023/07/28 04:24:21;;;;;;;0.40;0.20;;;;;;;;;;5005028;28;20096;-66
2023/07/28 04:26:48;;;;;;;0.25;0.25;;;;;;;;;;5007412;28;20037;-66
2023/07/28 04:29:14;;;;;;;1.15;0.32;;;;;;;;;;4992881;28;20104;-66
2023/07/28 04:31:39;;;;;;;0.47;0.40;;;;;;;;;;5001798;28;20087;-66
2023/07/28 04:34:05;;;;;;;0.65;0.40;;;;;;;;;;4992023;28;20049;-66
2023/07/28 04:36:30;;;;;;;2.13;0.52;;;;;;;;;;4981940;28;20029;-66
2023/07/28 04:38:55;;;;;;;1.88;0.90;;;;;;;;;;4966312;28;20044;-66
2023/07/28 04:41:21;;;;;;;0.30;0.30;;;;;;;;;;4983869;28;20422;-66
2023/07/28 04:43:46;;;;;;;1.77;0.88;;;;;;;;;;4987042;28;20084;-66
2023/07/28 04:46:11;;;;;;;1.15;0.70;;;;;;;;;;4992173;28;20467;-66
2023/07/28 04:48:37;;;;;;;1.83;1.10;;;;;;;;;;4993429;28;20049;-66
2023/07/28 04:51:02;;;;;;;0.55;0.40;;;;;;;;;;4987958;28;20033;-65
2023/07/28 04:53:28;;;;;;;0.90;0.82;;;;;;;;;;4990623;28;20034;-66
2023/07/28 04:55:53;;;;;;;1.17;0.93;;;;;;;;;;4988241;28;20026;-67
2023/07/28 04:58:18;;;;;;;0.22;0.22;;;;;;;;;;4990966;28;20121;-67
2023/07/28 05:00:44;;;;;;;0.75;0.63;;;;;;;;;;4986344;28;20030;-67
2023/07/28 05:03:09;;;;;;;1.33;0.47;;;;;;;;;;4984838;28;20030;-67
2023/07/28 05:05:34;;;;;;;2.47;0.50;;;;;;;;;;4985359;28;20561;-67
2023/07/28 05:08:00;;;;;;;0.30;0.30;;;;;;;;;;4982727;28;20026;-67
2023/07/28 05:10:25;;;;;;;0.50;0.50;;;;;;;;;;4991596;28;20045;-67
2023/07/28 05:12:50;;;;;;;1.60;0.70;;;;;;;;;;4984963;28;20117;-67
2023/07/28 05:15:16;;;;;;;0.40;0.30;;;;;;;;;;4987046;28;20034;-66
2023/07/28 05:17:41;;;;;;;1.27;0.60;;;;;;;;;;4984116;28;20057;-67
2023/07/28 05:20:07;;;;;;;1.10;0.60;;;;;;;;;;4986944;28;20034;-67
2023/07/28 05:22:32;;;;;;;1.33;0.57;;;;;;;;;;4982930;28;20033;-67
2023/07/28 05:24:58;;;;;;;0.75;0.50;;;;;;;;;;4986707;28;20498;-67
2023/07/28 05:27:23;;;;;;;0.30;0.30;;;;;;;;;;4986268;28;20026;-66
2023/07/28 05:29:49;;;;;;;0.80;0.68;;;;;;;;;;4984745;28;20499;-67
2023/07/28 05:32:14;;;;;;;1.33;0.70;;;;;;;;;;4985435;28;20689;-66
2023/07/28 05:34:43;;;;;;;0.30;0.30;;;;;;;;;;4986205;28;20113;-66
2023/07/28 05:37:09;;;;;;;2.00;0.80;;;;;;;;;;4984949;28;20026;-66
2023/07/28 05:39:34;;;;;;;0.40;0.40;;;;;;;;;;4990798;28;20026;-67
2023/07/28 05:42:00;;;;;;;0.35;0.30;;;;;;;;;;4998563;28;20087;-66
2023/07/28 05:44:25;;;;;;;0.60;0.50;;;;;;;;;;4996155;28;20117;-66
2023/07/28 05:46:50;;;;;;;0.68;0.50;;;;;;;;;;4991622;28;20046;-66
2023/07/28 05:49:16;;;;;;;0.60;0.50;;;;;;;;;;4988828;28;20499;-66
2023/07/28 05:51:41;;;;;;;0.50;0.50;;;;;;;;;;4996159;28;20033;-66
2023/07/28 05:54:07;;;;;;;1.10;0.70;;;;;;;;;;4997779;28;20057;-66
2023/07/28 05:56:32;;;;;;;1.73;0.60;;;;;;;;;;4989941;28;20022;-66
2023/07/28 05:58:57;;;;;;;1.33;0.70;;;;;;;;;;4992270;28;20034;-66
2023/07/28 06:01:25;;;;;;;1.73;0.70;;;;;;;;;;4991792;28;20042;-66
2023/07/28 06:03:51;;;;;;;0.80;0.50;;;;;;;;;;4986577;28;20034;-66
2023/07/28 06:06:18;;;;;;;0.47;0.40;;;;;;;;;;4989369;28;20022;-66
2023/07/28 06:08:44;;;;;;;1.23;0.73;;;;;;;;;;4991926;28;20022;-66
2023/07/28 06:11:09;;;;;;;0.93;0.60;;;;;;;;;;4996437;28;20021;-66
2023/07/28 06:13:34;;;;;;;0.85;0.70;;;;;;;;;;4998216;28;20022;-67
2023/07/28 06:16:00;;;;;;;0.70;0.50;;;;;;;;;;4995180;28;20022;-66
2023/07/28 06:18:25;;;;;;;0.57;0.50;;;;;;;;;;4992247;28;20306;-66
2023/07/28 06:20:51;;;;;;;0.75;0.50;;;;;;;;;;4995553;28;20125;-66
2023/07/28 06:23:16;;;;;;;1.25;0.70;;;;;;;;;;4996326;28;20486;-66
2023/07/28 06:25:44;;;;;;;0.93;0.60;;;;;;;;;;4994858;28;20114;-66
2023/07/28 06:28:12;;;;;;;0.85;0.40;;;;;;;;;;4988581;28;20045;-66
2023/07/28 06:30:38;;;;;;;0.50;0.50;;;;;;;;;;4994841;28;20033;-66
2023/07/28 06:33:06;;;;;;;0.93;0.70;;;;;;;;;;4983549;28;20037;-66
2023/07/28 06:35:31;;;;;;;0.73;0.50;;;;;;;;;;4990822;28;20545;-66
2023/07/28 06:37:57;;;;;;;0.95;0.50;;;;;;;;;;4989580;28;20038;-66
2023/07/28 06:40:22;;;;;;;1.10;0.40;;;;;;;;;;4998052;28;20105;-66
2023/07/28 06:42:48;;;;;;;0.50;0.47;;;;;;;;;;4987321;28;20030;-66
2023/07/28 06:45:13;;;;;;;0.40;0.40;;;;;;;;;;4983798;28;20025;-66
2023/07/28 06:47:39;;;;;;;1.35;0.50;;;;;;;;;;4990239;28;20710;-66
2023/07/28 06:50:05;;;;;;;1.27;0.63;;;;;;;;;;4983634;28;20026;-66
2023/07/28 06:52:30;;;;;;;0.57;0.45;;;;;;;;;;4996385;28;20601;-66
2023/07/28 06:54:56;;;;;;;0.77;0.70;;;;;;;;;;4982440;28;20466;-67
2023/07/28 06:57:21;;;;;;;0.60;0.40;;;;;;;;;;4991158;28;20018;-66
2023/07/28 06:59:47;;;;;;;0.50;0.40;;;;;;;;;;4992720;28;20014;-66
2023/07/28 07:02:13;;;;;;;1.00;0.50;;;;;;;;;;4994059;28;20061;-65
2023/07/28 07:04:38;;;;;;;1.65;0.70;;;;;;;;;;4987234;28;20042;-66
2023/07/28 07:07:04;;;;;;;0.90;0.57;;;;;;;;;;4985893;28;20030;-66
2023/07/28 07:09:29;;;;;;;0.40;0.40;;;;;;;;;;4997341;28;20336;-66
2023/07/28 07:11:54;;;;;;;0.95;0.52;;;;;;;;;;4994154;28;20037;-66
2023/07/28 07:14:20;;;;;;;3.55;0.50;;;;;;;;;;4989365;28;20041;-66
2023/07/28 07:16:45;;;;;;;0.73;0.45;;;;;;;;;;4992431;28;20030;-66
2023/07/28 07:19:11;;;;;;;0.47;0.40;;;;;;;;;;4986736;28;20033;-66
2023/07/28 07:21:36;;;;;;;1.08;0.70;;;;;;;;;;4996870;28;20691;-66
2023/07/28 07:24:05;;;;;;;0.77;0.57;;;;;;;;;;4992855;28;20022;-66
2023/07/28 07:26:33;;;;;;;1.60;0.68;;;;;;;;;;4993153;28;20026;-66
2023/07/28 07:28:59;;;;;;;0.40;0.40;;;;;;;;;;4991443;28;20501;-66
2023/07/28 07:31:24;;;;;;;0.57;0.47;;;;;;;;;;4989667;28;20034;-66
2023/07/28 07:33:50;;;;;;;0.28;0.28;;;;;;;;;;4990393;28;20169;-66
2023/07/28 07:36:16;;;;;;;0.30;0.30;;;;;;;;;;4994563;28;20027;-66
2023/07/28 07:38:42;;;;;;;1.33;0.50;;;;;;;;;;5001209;28;20045;-66
2023/07/28 07:41:08;;;;;;;0.50;0.40;;;;;;;;;;4992289;28;20127;-65
2023/07/28 07:43:34;;;;;;;0.98;0.57;;;;;;;;;;4994521;28;20491;-65
2023/07/28 07:45:59;;;;;;;0.40;0.40;;;;;;;;;;4990884;28;20090;-65
2023/07/28 07:48:25;;;;;;;2.13;0.50;;;;;;;;;;4993558;28;20025;-64
2023/07/28 07:50:51;;;;;;;0.70;0.40;;;;;;;;;;4993125;28;20033;-65
2023/07/28 07:53:17;;;;;;;1.95;0.70;;;;;;;;;;4999227;28;20052;-64
2023/07/28 07:55:42;;;;;;;0.57;0.57;;;;;;;;;;4997983;28;20029;-66
2023/07/28 07:58:07;;;;;;;0.98;0.50;;;;;;;;;;4993894;28;20032;-64
2023/07/28 08:00:33;;;;;;;0.98;0.40;;;;;;;;;;4990591;28;20026;-65
2023/07/28 08:02:59;;;;;;;0.52;0.40;;;;;;;;;;4992218;28;20101;-66
2023/07/28 08:05:24;;;;;;;0.40;0.40;;;;;;;;;;4989994;28;20113;-64
2023/07/28 08:07:50;;;;;;;0.40;0.40;;;;;;;;;;4985476;28;20073;-66
2023/07/28 08:10:16;;;;;;;0.50;0.40;;;;;;;;;;4992019;28;20026;-66
2023/07/28 08:12:44;;;;;;;0.93;0.32;;;;;;;;;;4994660;28;20683;-65
2023/07/28 08:15:10;;;;;;;0.30;0.30;;;;;;;;;;4989661;28;20026;-66
2023/07/28 08:17:36;;;;;;;1.30;0.50;;;;;;;;;;4993642;28;20145;-66
2023/07/28 08:20:01;;;;;;;2.25;0.60;;;;;;;;;;4987755;28;20037;-66
2023/07/28 08:22:26;;;;;;;0.73;0.50;;;;;;;;;;4990502;28;20061;-65
2023/07/28 08:24:52;;;;;;;1.02;0.40;;;;;;;;;;4992378;28;20029;-65
2023/07/28 08:27:18;;;;;;;0.50;0.45;;;;;;;;;;4993061;28;20029;-66
2023/07/28 08:29:43;;;;;;;0.68;0.60;;;;;;;;;;4990984;28;20025;-65
2023/07/28 08:32:09;;;;;;;1.98;0.50;;;;;;;;;;4991268;28;20105;-66
2023/07/28 08:34:34;;;;;;;0.57;0.40;;;;;;;;;;4992102;28;20057;-65
2023/07/28 08:36:59;;;;;;;0.50;0.45;;;;;;;;;;5003764;28;20058;-65
2023/07/28 08:39:25;;;;;;;1.13;0.50;;;;;;;;;;4991722;28;20034;-65
2023/07/28 08:42:03;;;;;;;2.97;0.75;;;;;;;;;;4991781;28;20038;-66
2023/07/28 08:44:34;;;;;;;0.45;0.40;;;;;;;;;;4989963;28;20050;-66
2023/07/28 08:47:04;;;;;;;0.40;0.40;;;;;;;;;;4990855;28;20032;-66
2023/07/28 08:49:35;;;;;;;0.80;0.45;;;;;;;;;;4989292;28;20443;-66
2023/07/28 08:52:01;;;;;;;0.77;0.60;;;;;;;;;;4991202;28;20030;-66
2023/07/28 08:54:27;;;;;;;1.05;0.43;;;;;;;;;;4986555;28;20486;-65
2023/07/28 08:56:52;;;;;;;0.40;0.40;;;;;;;;;;4989823;28;20037;-66
2023/07/28 08:59:22;;;;;;;2.30;0.47;;;;;;;;;;4988673;28;20026;-65
2023/07/28 09:01:50;;;;;;;0.85;0.38;;;;;;;;;;4989203;28;20545;-65
2023/07/28 09:04:15;;;;;;;1.38;0.60;;;;;;;;;;4989067;28;20374;-66
2023/07/28 09:06:45;;;;;;;0.45;0.45;;;;;;;;;;4988934;28;20085;-66
2023/07/28 09:09:10;;;;;;;0.60;0.60;;;;;;;;;;4985898;28;20029;-66
2023/07/28 09:11:45;;;;;;;1.38;0.60;;;;;;;;;;4989582;28;20030;-66
2023/07/28 09:14:12;;;;;;;0.60;0.40;;;;;;;;;;4990050;28;20036;-66
2023/07/28 09:16:38;;;;;;;0.82;0.50;;;;;;;;;;4994389;28;20022;-66
2023/07/28 09:19:07;;;;;;;0.60;0.50;;;;;;;;;;4997138;28;20022;-65
2023/07/28 09:21:33;;;;;;;0.60;0.50;;;;;;;;;;4989682;28;20037;-65
2023/07/28 09:24:04;;;;;;;1.20;0.55;;;;;;;;;;4988645;28;20383;-66
2023/07/28 09:26:40;;;;;;;0.68;0.60;;;;;;;;;;4990218;28;20658;-66
2023/07/28 09:29:18;;;;;;;1.55;0.57;;;;;;;;;;4998182;28;20037;-66
2023/07/28 09:31:45;;;;;;;1.02;0.50;;;;;;;;;;4992144;28;20030;-66
2023/07/28 09:34:13;;;;;;;1.23;0.70;;;;;;;;;;4997322;28;20596;-65
2023/07/28 09:36:39;;;;;;;0.47;0.47;;;;;;;;;;4998011;28;20048;-66
2023/07/28 09:39:09;;;;;;;0.82;0.70;;;;;;;;;;4996406;28;20022;-66
2023/07/28 09:41:38;;;;;;;1.45;0.60;;;;;;;;;;4989839;28;20026;-65
2023/07/28 09:44:05;;;;;;;1.10;0.70;;;;;;;;;;4992422;28;20045;-65
2023/07/28 09:46:35;;;;;;;0.63;0.60;;;;;;;;;;4997280;28;20034;-65
2023/07/28 09:49:04;;;;;;;1.88;0.93;;;;;;;;;;4991094;28;20022;-65
2023/07/28 09:51:32;;;;;;;2.35;1.00;;;;;;;;;;4994871;28;20038;-65
2023/07/28 09:54:06;;;;;;;1.10;0.70;;;;;;;;;;4989538;28;20030;-65
2023/07/28 09:56:32;;;;;;;1.02;0.60;;;;;;;;;;4990633;28;20030;-65
2023/07/28 09:58:58;;;;;;;0.70;0.50;;;;;;;;;;4989126;28;20060;-65
2023/07/28 10:01:24;;;;;;;0.50;0.50;;;;;;;;;;4989989;28;20034;-65
2023/07/28 10:03:50;;;;;;;1.30;0.60;;;;;;;;;;4987852;28;20054;-65
2023/07/28 10:06:17;;;;;;;1.13;0.65;;;;;;;;;;4992928;28;20033;-65
2023/07/28 10:08:44;;;;;;;1.25;0.65;;;;;;;;;;4997160;28;20412;-64
2023/07/28 10:11:14;;;;;;;0.60;0.50;;;;;;;;;;4997490;28;20050;-65
2023/07/28 10:13:46;;;;;;;0.52;0.52;;;;;;;;;;4989791;28;20030;-64
2023/07/28 10:16:15;;;;;;;1.73;0.60;;;;;;;;;;4989632;28;20049;-65
2023/07/28 10:18:41;;;;;;;0.90;0.70;;;;;;;;;;4997065;28;20037;-65
2023/07/28 10:21:13;;;;;;;0.70;0.70;;;;;;;;;;5006844;28;20022;-64
2023/07/28 10:23:39;;;;;;;0.60;0.47;;;;;;;;;;4997328;28;20033;-65
2023/07/28 10:26:08;;;;;;;1.35;0.60;;;;;;;;;;4994386;28;20018;-65
2023/07/28 10:28:38;;;;;;;3.00;0.50;;;;;;;;;;4990138;28;20029;-65
2023/07/28 10:31:05;;;;;;;0.68;0.60;;;;;;;;;;4991255;28;20415;-65
2023/07/28 10:33:36;;;;;;;0.90;0.50;;;;;;;;;;4996880;28;20153;-65
2023/07/28 10:36:33;;;;;;;1.17;0.55;;;;;;;;;;4996482;28;20026;-65
2023/07/28 10:39:14;;;;;;;0.90;0.80;;;;;;;;;;4994388;28;20037;-64
2023/07/28 10:41:59;;;;;;;1.15;0.60;;;;;;;;;;4997889;28;20129;-64
2023/07/28 10:44:25;;;;;;;1.02;0.75;;;;;;;;;;4996107;28;20025;-65
2023/07/28 10:46:51;;;;;;;0.95;0.75;;;;;;;;;;4995751;28;20045;-64
2023/07/28 10:49:17;;;;;;;0.90;0.73;;;;;;;;;;4998153;28;20502;-64
2023/07/28 10:51:42;;;;;;;2.97;0.80;;;;;;;;;;5000245;28;20394;-64
2023/07/28 10:54:07;;;;;;;0.98;0.88;;;;;;;;;;4996565;28;20037;-64
2023/07/28 10:56:33;;;;;;;0.70;0.65;;;;;;;;;;4993734;28;20076;-64
2023/07/28 10:58:59;;;;;;;0.73;0.70;;;;;;;;;;4990455;28;20668;-64
2023/07/28 11:01:34;;;;;;;1.92;0.73;;;;;;;;;;4996673;28;20037;-64
2023/07/28 11:04:15;;;;;;;1.67;0.70;;;;;;;;;;4996479;28;20034;-64
2023/07/28 11:06:48;;;;;;;0.90;0.80;;;;;;;;;;5000125;28;20026;-64
2023/07/28 11:09:15;;;;;;;0.68;0.60;;;;;;;;;;4993429;28;20022;-64
2023/07/28 11:11:42;;;;;;;0.63;0.55;;;;;;;;;;4993675;28;20030;-64
2023/07/28 11:14:08;;;;;;;0.70;0.70;;;;;;;;;;4987482;28;20027;-64
2023/07/28 11:16:36;;;;;;;1.05;0.70;;;;;;;;;;4990613;28;20033;-64
2023/07/28 11:19:03;;;;;;;2.05;1.08;;;;;;;;;;4998123;28;20027;-63
2023/07/28 11:21:29;;;;;;;1.20;0.80;;;;;;;;;;4996650;28;20113;-63
2023/07/28 11:23:54;;;;;;;0.90;0.80;;;;;;;;;;4997421;28;20030;-63
2023/07/28 11:26:22;;;;;;;2.13;0.82;;;;;;;;;;4993525;28;20029;-64
2023/07/28 11:28:48;;;;;;;1.27;1.17;;;;;;;;;;4986550;28;20034;-63
2023/07/28 11:31:13;;;;;;;0.90;0.90;;;;;;;;;;4988443;28;20436;-64
2023/07/28 11:33:39;;;;;;;1.25;0.90;;;;;;;;;;4991176;28;20022;-63
2023/07/28 11:36:05;;;;;;;1.02;0.90;;;;;;;;;;4993495;28;20030;-63
2023/07/28 11:38:32;;;;;;;0.98;0.90;;;;;;;;;;4995751;28;20030;-63
2023/07/28 11:40:58;;;;;;;2.05;0.90;;;;;;;;;;4983893;28;20038;-63
2023/07/28 11:43:24;;;;;;;1.08;0.90;;;;;;;;;;4987386;28;20029;-63
2023/07/28 11:45:50;;;;;;;0.88;0.80;;;;;;;;;;4987856;28;20030;-63
2023/07/28 11:48:15;;;;;;;1.30;0.90;;;;;;;;;;4985792;28;20030;-64
2023/07/28 11:50:42;;;;;;;1.13;0.80;;;;;;;;;;4988623;28;20166;-63
2023/07/28 11:53:09;;;;;;;1.88;0.90;;;;;;;;;;4988581;28;20076;-63
2023/07/28 11:55:38;;;;;;;1.13;1.00;;;;;;;;;;4974275;28;20394;-63
2023/07/28 11:58:07;;;;;;;1.35;0.90;;;;;;;;;;4987433;28;20038;-63
2023/07/28 12:00:39;;;;;;;1.33;1.00;;;;;;;;;;4988869;28;20026;-63
2023/07/28 12:03:06;;;;;;;1.58;0.80;;;;;;;;;;4992771;28;20060;-63
2023/07/28 12:05:33;;;;;;;1.45;1.00;;;;;;;;;;4990510;28;20057;-63
2023/07/28 12:07:59;;;;;;;1.67;1.00;;;;;;;;;;4987817;28;20122;-63
2023/07/28 12:10:24;;;;;;;1.42;1.00;;;;;;;;;;4985187;28;20025;-64
2023/07/28 12:12:50;;;;;;;1.45;0.98;;;;;;;;;;4990092;28;20018;-63
2023/07/28 12:15:28;;;;;;;1.08;0.88;;;;;;;;;;4990172;28;20057;-63
2023/07/28 12:18:20;;;;;;;1.42;1.00;;;;;;;;;;4985122;28;20022;-63
2023/07/28 12:20:51;;;;;;;1.90;1.00;;;;;;;;;;4988434;28;20064;-63
2023/07/28 12:23:22;;;;;;;1.10;0.90;;;;;;;;;;4989867;28;20021;-63
2023/07/28 12:25:48;;;;;;;1.90;1.15;;;;;;;;;;4987904;28;20057;-63
2023/07/28 12:28:13;;;;;;;1.13;0.90;;;;;;;;;;4989082;28;20108;-62
2023/07/28 12:30:39;;;;;;;2.03;1.20;;;;;;;;;;4989092;28;20093;-62
2023/07/28 12:33:05;;;;;;;1.15;0.90;;;;;;;;;;4987245;28;20026;-63
2023/07/28 12:35:34;;;;;;;1.70;1.10;;;;;;;;;;4993149;28;20117;-62
2023/07/28 12:38:08;;;;;;;1.70;0.90;;;;;;;;;;4987984;28;20029;-62
2023/07/28 12:40:34;;;;;;;2.65;0.93;;;;;;;;;;4985254;28;20466;-64
2023/07/28 12:43:03;;;;;;;2.13;1.00;;;;;;;;;;4986510;28;20030;-65
2023/07/28 12:45:29;;;;;;;1.25;0.93;;;;;;;;;;4992772;28;20088;-64
2023/07/28 12:47:55;;;;;;;1.60;1.02;;;;;;;;;;4996026;28;20022;-62
2023/07/28 12:50:21;;;;;;;1.65;1.00;;;;;;;;;;4994100;28;20649;-65
2023/07/28 12:52:50;;;;;;;2.13;1.10;;;;;;;;;;4997300;28;20116;-63
2023/07/28 12:55:16;;;;;;;2.03;1.00;;;;;;;;;;4993648;28;20045;-62
2023/07/28 12:57:42;;;;;;;1.80;1.00;;;;;;;;;;4991291;28;20034;-63
2023/07/28 13:00:12;;;;;;;1.33;1.00;;;;;;;;;;4987929;28;20483;-62
2023/07/28 13:02:44;;;;;;;0.90;0.88;;;;;;;;;;4990677;28;20422;-62
2023/07/28 13:05:11;;;;;;;1.98;1.00;;;;;;;;;;4995030;28;20045;-62
2023/07/28 13:07:37;;;;;;;2.08;1.17;;;;;;;;;;4991263;28;20161;-63
2023/07/28 13:10:04;;;;;;;2.38;0.93;;;;;;;;;;4993138;28;20031;-63
2023/07/28 13:12:29;;;;;;;1.65;1.23;;;;;;;;;;4986639;28;20018;-63
2023/07/28 13:14:55;;;;;;;1.05;0.95;;;;;;;;;;4995817;28;20034;-63
2023/07/28 13:17:20;;;;;;;1.35;1.00;;;;;;;;;;4994532;28;20414;-63
2023/07/28 13:19:46;;;;;;;2.03;0.90;;;;;;;;;;4996202;28;20437;-64
2023/07/28 13:22:11;;;;;;;1.15;0.90;;;;;;;;;;4992414;28;20058;-64
2023/07/28 13:24:38;;;;;;;1.40;0.95;;;;;;;;;;4988591;28;20019;-63
2023/07/28 13:27:04;;;;;;;1.55;1.00;;;;;;;;;;4990087;28;20022;-64
2023/07/28 13:29:29;;;;;;;1.98;1.00;;;;;;;;;;4985176;28;20032;-64
2023/07/28 13:31:58;;;;;;;1.42;1.10;;;;;;;;;;4991055;28;20414;-64
2023/07/28 13:34:24;;;;;;;2.17;1.48;;;;;;;;;;4988244;28;20021;-63
2023/07/28 13:36:49;;;;;;;1.10;0.80;;;;;;;;;;4989824;28;20482;-63
2023/07/28 13:39:15;;;;;;;1.15;0.93;;;;;;;;;;4993330;28;20081;-64
2023/07/28 13:41:40;;;;;;;2.13;1.20;;;;;;;;;;5005775;28;20036;-64
2023/07/28 13:44:07;;;;;;;1.10;0.80;;;;;;;;;;4986927;28;20022;-64
2023/07/28 13:46:32;;;;;;;1.15;0.80;;;;;;;;;;4987631;28;20100;-64
2023/07/28 13:48:57;;;;;;;1.48;1.00;;;;;;;;;;4978598;28;20169;-64
2023/07/28 13:51:23;;;;;;;1.27;1.00;;;;;;;;;;4987862;28;20022;-63
2023/07/28 13:53:48;;;;;;;1.10;0.98;;;;;;;;;;4986992;28;20720;-64
2023/07/28 13:56:14;;;;;;;1.95;0.95;;;;;;;;;;4985251;28;20084;-64
2023/07/28 13:58:39;;;;;;;1.55;0.90;;;;;;;;;;4981026;28;20034;-63
2023/07/28 14:01:04;;;;;;;0.88;0.82;;;;;;;;;;4987844;28;20733;-63
2023/07/28 14:03:30;;;;;;;0.80;0.70;;;;;;;;;;4989073;28;20026;-64
2023/07/28 14:05:56;;;;;;;0.88;0.85;;;;;;;;;;4987730;28;20491;-64
2023/07/28 14:08:21;;;;;;;1.30;0.88;;;;;;;;;;4984729;28;20479;-64
2023/07/28 14:10:46;;;;;;;1.85;0.95;;;;;;;;;;4985256;28;20113;-64
2023/07/28 14:13:12;;;;;;;1.15;0.90;;;;;;;;;;4986753;28;20113;-63
2023/07/28 14:15:38;;;;;;;2.05;0.80;;;;;;;;;;4985265;28;20388;-64
2023/07/28 14:18:03;;;;;;;1.13;0.85;;;;;;;;;;4988176;28;20033;-63
2023/07/28 14:20:29;;;;;;;1.23;1.00;;;;;;;;;;4988128;28;20037;-63
2023/07/28 14:22:55;;;;;;;1.55;1.10;;;;;;;;;;4985588;28;20585;-63
2023/07/28 14:25:20;;;;;;;2.50;0.75;;;;;;;;;;4985411;28;20045;-63
2023/07/28 14:27:46;;;;;;;1.63;0.77;;;;;;;;;;4983650;28;20034;-63
2023/07/28 14:30:11;;;;;;;1.63;1.10;;;;;;;;;;4984766;28;20041;-64
2023/07/28 14:32:36;;;;;;;1.70;0.90;;;;;;;;;;4987131;28;20056;-64
2023/07/28 14:35:02;;;;;;;0.95;0.70;;;;;;;;;;4991162;28;20463;-63
2023/07/28 14:37:27;;;;;;;0.95;0.88;;;;;;;;;;4988025;28;20085;-62
2023/07/28 14:39:53;;;;;;;2.25;1.00;;;;;;;;;;4985399;28;20478;-63